createdAt,value
2022-10-04T00:00:45.617Z,13.70
2022-10-04T00:03:30.171Z,13.70
2022-10-04T00:06:00.714Z,13.60
2022-10-04T00:08:38.760Z,13.70
2022-10-04T00:11:20.209Z,13.70
2022-10-04T00:13:52.172Z,13.70
2022-10-04T00:16:24.988Z,13.70
2022-10-04T00:19:20.161Z,13.80
2022-10-04T00:21:59.942Z,13.80
2022-10-04T00:24:30.413Z,13.90
2022-10-04T00:27:26.997Z,13.90
2022-10-04T00:30:04.280Z,13.90
2022-10-04T00:32:40.696Z,13.90
2022-10-04T00:35:26.812Z,13.80
2022-10-04T00:38:00.259Z,13.80
2022-10-04T00:40:37.008Z,13.90
2022-10-04T00:43:18.604Z,13.90
2022-10-04T00:45:59.432Z,13.90
2022-10-04T00:48:38.667Z,13.90
2022-10-04T00:51:27.808Z,13.90
2022-10-04T00:54:01.239Z,13.90
2022-10-04T00:56:37.606Z,13.80
2022-10-04T00:59:20.518Z,13.80
2022-10-04T01:01:51.693Z,13.80
2022-10-04T01:04:48.798Z,13.80
2022-10-04T01:07:23.384Z,13.80
2022-10-04T01:09:56.566Z,13.80
2022-10-04T01:12:34.948Z,13.80
2022-10-04T01:15:17.872Z,13.90
2022-10-04T01:18:09.181Z,13.90
2022-10-04T01:21:07.367Z,13.90
2022-10-04T01:23:46.729Z,13.90
2022-10-04T01:26:38.335Z,13.90
2022-10-04T01:29:28.913Z,14.00
2022-10-04T01:31:58.704Z,14.00
2022-10-04T01:34:29.254Z,14.00
2022-10-04T01:36:59.517Z,13.90
2022-10-04T01:39:28.679Z,14.00
2022-10-04T01:42:01.779Z,14.00
2022-10-04T01:44:41.183Z,14.00
2022-10-04T01:47:50.093Z,14.00
2022-10-04T01:50:25.177Z,14.00
2022-10-04T01:53:01.440Z,14.00
2022-10-04T01:55:34.306Z,14.00
2022-10-04T01:58:16.672Z,14.10
2022-10-04T02:00:52.119Z,14.20
2022-10-04T02:03:35.027Z,14.30
2022-10-04T02:06:07.456Z,14.30
2022-10-04T02:08:39.470Z,14.30
2022-10-04T02:11:07.505Z,14.30
2022-10-04T02:13:40.195Z,14.40
2022-10-04T02:16:12.324Z,14.40
2022-10-04T02:18:43.652Z,14.50
2022-10-04T02:21:12.969Z,14.50
2022-10-04T02:23:42.233Z,14.60
2022-10-04T02:26:11.406Z,14.70
2022-10-04T02:28:40.963Z,14.70
2022-10-04T02:31:28.418Z,14.80
2022-10-04T02:33:59.237Z,14.90
2022-10-04T02:36:29.728Z,14.90
2022-10-04T02:39:15.549Z,14.90
2022-10-04T02:42:01.762Z,14.90
2022-10-04T02:44:41.494Z,14.90
2022-10-04T02:47:12.978Z,15.00
2022-10-04T02:49:45.260Z,15.00
2022-10-04T02:52:37.130Z,15.00
2022-10-04T02:55:18.614Z,15.00
2022-10-04T02:57:46.528Z,15.00
2022-10-04T03:00:16.848Z,15.00
2022-10-04T03:03:21.460Z,15.00
2022-10-04T03:06:09.353Z,15.00
2022-10-04T03:08:58.161Z,15.10
2022-10-04T03:11:31.046Z,15.10
2022-10-04T03:14:01.145Z,15.10
2022-10-04T03:16:35.430Z,15.00
2022-10-04T03:19:03.806Z,15.00
2022-10-04T03:21:32.755Z,15.00
2022-10-04T03:24:02.043Z,15.10
2022-10-04T03:26:33.257Z,15.00
2022-10-04T03:29:01.372Z,15.00
2022-10-04T03:31:29.804Z,15.00
2022-10-04T03:33:58.876Z,15.00
2022-10-04T03:36:27.438Z,15.00
2022-10-04T03:38:57.457Z,15.00
2022-10-04T03:41:26.050Z,15.00
2022-10-04T03:43:56.496Z,15.00
2022-10-04T03:46:25.442Z,15.00
2022-10-04T03:48:54.463Z,15.00
2022-10-04T03:51:26.722Z,15.00
2022-10-04T03:53:58.022Z,15.00
2022-10-04T03:56:29.431Z,15.00
2022-10-04T03:58:58.017Z,15.00
2022-10-04T04:01:34.650Z,15.00
2022-10-04T04:04:39.564Z,15.00
2022-10-04T04:07:14.316Z,15.10
2022-10-04T04:09:45.973Z,15.10
2022-10-04T04:12:47.900Z,15.10
2022-10-04T04:15:16.218Z,15.10
2022-10-04T04:17:48.321Z,15.10
2022-10-04T04:20:32.562Z,15.20
2022-10-04T04:23:12.808Z,15.20
2022-10-04T04:25:46.864Z,15.20
2022-10-04T04:28:40.382Z,15.20
2022-10-04T04:31:18.353Z,15.20
2022-10-04T04:34:00.682Z,15.30
2022-10-04T04:36:33.418Z,15.30
2022-10-04T04:39:39.960Z,15.30
2022-10-04T04:42:10.569Z,15.20
2022-10-04T04:44:47.784Z,15.20
2022-10-04T04:47:40.195Z,15.30
2022-10-04T04:50:19.956Z,15.30
2022-10-04T04:52:53.677Z,15.30
2022-10-04T04:55:27.546Z,15.30
2022-10-04T04:57:58.181Z,15.40
2022-10-04T05:00:34.755Z,15.40
2022-10-04T05:03:05.009Z,15.40
2022-10-04T05:05:34.114Z,15.40
2022-10-04T05:08:19.732Z,15.40
2022-10-04T05:11:12.931Z,15.30
2022-10-04T05:13:53.825Z,15.30
2022-10-04T05:16:44.001Z,15.30
2022-10-04T05:19:34.250Z,15.30
2022-10-04T05:22:08.367Z,15.30
2022-10-04T05:24:40.022Z,15.30
2022-10-04T05:27:17.822Z,15.20
2022-10-04T05:30:03.346Z,15.20
2022-10-04T05:33:00.522Z,15.20
2022-10-04T05:35:29.591Z,15.10
2022-10-04T05:38:26.623Z,15.10
2022-10-04T05:40:59.853Z,15.10
2022-10-04T05:43:36.775Z,15.10
2022-10-04T05:46:33.355Z,15.10
2022-10-04T05:49:18.951Z,15.10
2022-10-04T05:51:54.509Z,15.10
2022-10-04T05:54:35.759Z,15.10
2022-10-04T05:57:31.304Z,15.00
2022-10-04T06:00:13.591Z,15.00
2022-10-04T06:02:56.769Z,15.10
2022-10-04T06:05:48.918Z,15.10
2022-10-04T06:08:33.938Z,15.10
2022-10-04T06:11:05.435Z,15.20
2022-10-04T06:13:59.502Z,15.20
2022-10-04T06:16:29.987Z,15.30
2022-10-04T06:19:53.159Z,15.30
2022-10-04T06:22:22.973Z,15.30
2022-10-04T06:25:04.816Z,15.30
2022-10-04T06:27:41.178Z,15.30
2022-10-04T06:30:19.365Z,15.30
2022-10-04T06:32:52.510Z,15.40
2022-10-04T06:35:22.913Z,15.30
2022-10-04T06:38:07.277Z,15.40
2022-10-04T06:40:47.284Z,15.30
2022-10-04T06:43:30.348Z,15.40
2022-10-04T06:46:24.974Z,15.40
2022-10-04T06:49:03.094Z,15.40
2022-10-04T06:51:42.681Z,15.40
2022-10-04T06:54:21.234Z,15.40
2022-10-04T06:56:56.030Z,15.40
2022-10-04T06:59:32.357Z,15.40
2022-10-04T07:02:22.648Z,15.50
2022-10-04T07:05:20.127Z,15.60
2022-10-04T07:08:06.532Z,15.60
2022-10-04T07:10:48.847Z,15.60
2022-10-04T07:13:52.381Z,15.50
2022-10-04T07:16:45.139Z,15.50
2022-10-04T07:19:19.574Z,15.50
2022-10-04T07:22:01.837Z,15.50
2022-10-04T07:24:57.441Z,15.50
2022-10-04T07:27:45.900Z,15.50
2022-10-04T07:30:20.801Z,15.50
2022-10-04T07:32:51.746Z,15.40
2022-10-04T07:35:36.008Z,15.50
2022-10-04T07:38:10.662Z,15.40
2022-10-04T07:40:58.231Z,15.50
2022-10-04T07:43:33.580Z,15.40
2022-10-04T07:46:15.102Z,15.40
2022-10-04T07:48:43.965Z,15.40
2022-10-04T07:51:33.910Z,15.40
2022-10-04T07:54:24.456Z,15.40
2022-10-04T07:57:00.027Z,15.40
2022-10-04T07:59:58.221Z,15.40
2022-10-04T08:02:45.522Z,15.30
2022-10-04T08:05:19.869Z,15.30
2022-10-04T08:07:54.740Z,15.30
2022-10-04T08:10:37.325Z,15.40
2022-10-04T08:13:27.873Z,15.30
2022-10-04T08:16:01.476Z,15.30
2022-10-04T08:18:35.178Z,15.30
2022-10-04T08:21:07.467Z,15.30
2022-10-04T08:23:49.375Z,15.30
2022-10-04T08:26:35.343Z,15.30
2022-10-04T08:29:42.533Z,15.30
2022-10-04T08:32:47.925Z,15.30
2022-10-04T08:35:33.675Z,15.30
2022-10-04T08:38:22.306Z,15.30
2022-10-04T08:41:08.619Z,15.40
2022-10-04T08:43:56.900Z,15.30
2022-10-04T08:47:03.262Z,15.40
2022-10-04T08:49:58.701Z,15.40
2022-10-04T08:52:26.337Z,15.40
2022-10-04T08:55:50.074Z,15.40
2022-10-04T08:58:35.379Z,15.30
2022-10-04T09:01:08.817Z,15.20
2022-10-04T09:04:01.710Z,15.20
2022-10-04T09:06:50.871Z,15.20
2022-10-04T09:09:39.452Z,15.10
2022-10-04T09:12:21.249Z,15.10
2022-10-04T09:15:03.756Z,15.10
2022-10-04T09:17:47.119Z,15.00
2022-10-04T09:20:37.850Z,15.10
2022-10-04T09:23:43.246Z,15.00
2022-10-04T09:26:13.904Z,15.00
2022-10-04T09:28:57.023Z,15.00
2022-10-04T09:31:38.503Z,15.00
2022-10-04T09:34:12.096Z,15.00
2022-10-04T09:36:42.801Z,15.00
2022-10-04T09:39:42.661Z,15.00
2022-10-04T09:42:36.731Z,15.00
2022-10-04T09:45:30.501Z,15.00
2022-10-04T09:48:01.527Z,15.00
2022-10-04T09:50:58.950Z,15.10
2022-10-04T09:54:01.847Z,15.10
2022-10-04T09:56:38.174Z,15.10
2022-10-04T09:59:35.322Z,15.10
2022-10-04T10:02:09.043Z,15.20
2022-10-04T10:04:45.525Z,15.20
2022-10-04T10:07:31.342Z,15.30
2022-10-04T10:10:41.200Z,15.30
2022-10-04T10:13:40.810Z,15.40
2022-10-04T10:16:46.444Z,15.40
2022-10-04T10:19:47.716Z,15.40
2022-10-04T10:22:15.106Z,15.50
2022-10-04T10:25:15.491Z,15.50
2022-10-04T10:28:11.771Z,15.50
2022-10-04T10:30:48.670Z,15.40
2022-10-04T10:33:17.280Z,15.40
2022-10-04T10:36:01.200Z,15.30
2022-10-04T10:38:35.656Z,15.30
2022-10-04T10:41:09.343Z,15.30
2022-10-04T10:44:19.932Z,15.30
2022-10-04T10:47:00.155Z,15.30
2022-10-04T10:49:44.310Z,15.30
2022-10-04T10:52:49.339Z,15.30
2022-10-04T10:55:49.206Z,15.20
2022-10-04T10:58:53.944Z,15.10
2022-10-04T11:01:53.405Z,15.10
2022-10-04T11:04:59.334Z,15.10
2022-10-04T11:07:38.524Z,15.10
2022-10-04T11:10:37.586Z,15.10
2022-10-04T11:13:18.871Z,15.10
2022-10-04T11:15:49.568Z,15.10
2022-10-04T11:19:04.722Z,15.20
2022-10-04T11:22:06.979Z,15.20
2022-10-04T11:25:04.688Z,15.20
2022-10-04T11:28:09.543Z,15.20
2022-10-04T11:31:02.749Z,15.30
2022-10-04T11:33:36.209Z,15.30
2022-10-04T11:36:31.219Z,15.30
2022-10-04T11:39:30.462Z,15.30
2022-10-04T11:42:42.797Z,15.40
2022-10-04T11:45:34.134Z,15.40
2022-10-04T11:48:40.251Z,15.40
2022-10-04T11:51:11.072Z,15.40
2022-10-04T11:53:44.271Z,15.50
2022-10-04T11:56:25.633Z,15.50
2022-10-04T11:59:31.003Z,15.50
2022-10-04T12:02:18.440Z,15.50
2022-10-04T12:05:09.165Z,15.60
2022-10-04T12:07:54.857Z,15.60
2022-10-04T12:10:29.835Z,15.60
2022-10-04T12:13:16.096Z,15.60
2022-10-04T12:16:15.826Z,15.70
2022-10-04T12:19:20.989Z,15.80
2022-10-04T12:22:14.778Z,15.90
2022-10-04T12:25:33.348Z,15.90
2022-10-04T12:28:27.034Z,16.10
2022-10-04T12:31:23.915Z,16.10
2022-10-04T12:34:04.590Z,16.10
2022-10-04T12:36:52.335Z,16.10
2022-10-04T12:39:40.185Z,16.10
2022-10-04T12:42:21.675Z,16.10
2022-10-04T12:45:13.856Z,16.10
2022-10-04T12:48:09.937Z,16.20
2022-10-04T12:50:53.275Z,16.20
2022-10-04T12:53:34.653Z,16.20
2022-10-04T12:56:21.936Z,16.10
2022-10-04T12:59:27.827Z,16.10
2022-10-04T13:02:26.199Z,16.10
2022-10-04T13:05:10.515Z,16.00
2022-10-04T13:07:44.769Z,16.00
2022-10-04T13:10:45.512Z,16.00
2022-10-04T13:13:22.661Z,16.00
2022-10-04T13:19:19.114Z,15.90
2022-10-04T13:22:55.279Z,15.90
2022-10-04T13:26:01.206Z,15.90
2022-10-04T13:28:46.492Z,15.90
2022-10-04T13:31:33.051Z,15.90
2022-10-04T13:34:20.360Z,15.90
2022-10-04T13:37:35.819Z,15.90
2022-10-04T13:40:24.417Z,15.90
2022-10-04T13:43:12.344Z,15.90
2022-10-04T13:45:51.611Z,15.90
2022-10-04T13:48:41.847Z,15.90
2022-10-04T13:51:49.176Z,15.90
2022-10-04T13:54:53.795Z,15.80
2022-10-04T13:57:29.750Z,15.80
2022-10-04T14:00:05.748Z,15.80
2022-10-04T14:02:42.534Z,15.80
2022-10-04T14:05:47.627Z,15.80
2022-10-04T14:08:30.260Z,15.80
2022-10-04T14:11:21.477Z,15.90
2022-10-04T14:14:14.665Z,15.90
2022-10-04T14:17:14.080Z,15.90
2022-10-04T14:20:01.303Z,15.90
2022-10-04T14:22:57.157Z,15.90
2022-10-04T14:25:58.776Z,16.00
2022-10-04T14:28:52.764Z,15.90
2022-10-04T14:31:36.046Z,15.90
2022-10-04T14:34:26.839Z,15.80
2022-10-04T14:37:35.713Z,15.90
2022-10-04T14:40:21.749Z,15.80
2022-10-04T14:43:19.416Z,15.80
2022-10-04T14:46:15.264Z,15.80
2022-10-04T14:48:58.615Z,15.80
2022-10-04T14:51:56.631Z,15.70
2022-10-04T14:54:26.918Z,15.60
2022-10-04T14:57:07.977Z,15.60
2022-10-04T15:00:10.295Z,15.50
2022-10-04T15:02:54.842Z,15.50
2022-10-04T15:05:44.481Z,15.40
2022-10-04T15:08:25.179Z,15.10
2022-10-04T15:10:58.873Z,14.90
2022-10-04T15:13:49.348Z,14.90
2022-10-04T15:16:29.168Z,14.80
2022-10-04T15:19:12.889Z,14.90
2022-10-04T15:21:53.340Z,14.80
2022-10-04T15:24:32.309Z,14.80
2022-10-04T15:27:33.770Z,14.80
2022-10-04T15:30:19.763Z,14.70
2022-10-04T15:33:09.249Z,14.70
2022-10-04T15:35:47.577Z,14.60
2022-10-04T15:38:43.603Z,14.60
2022-10-04T15:41:30.797Z,14.60
2022-10-04T15:44:27.952Z,14.60
2022-10-04T15:47:07.430Z,14.70
2022-10-04T15:49:57.600Z,14.70
2022-10-04T15:52:48.975Z,14.70
2022-10-04T15:55:34.987Z,14.60
2022-10-04T15:58:16.902Z,14.60
2022-10-04T16:01:05.489Z,14.50
2022-10-04T16:03:39.510Z,14.50
2022-10-04T16:06:12.515Z,14.50
2022-10-04T16:08:58.062Z,14.60
2022-10-04T16:11:50.538Z,14.60
2022-10-04T16:14:29.642Z,14.50
2022-10-04T16:17:11.945Z,14.50
2022-10-04T16:20:07.640Z,14.40
2022-10-04T16:22:38.238Z,14.30
2022-10-04T16:25:24.220Z,14.30
2022-10-04T16:27:57.766Z,14.20
2022-10-04T16:30:33.585Z,14.20
2022-10-04T16:33:36.612Z,14.20
2022-10-04T16:36:10.181Z,14.20
2022-10-04T16:39:07.063Z,14.20
2022-10-04T16:41:40.970Z,14.20
2022-10-04T16:44:46.625Z,14.20
2022-10-04T16:47:31.598Z,14.10
2022-10-04T16:50:01.843Z,13.90
2022-10-04T16:53:18.121Z,13.80
2022-10-04T16:55:53.305Z,13.70
2022-10-04T16:58:33.563Z,13.80
2022-10-04T17:01:22.680Z,13.90
2022-10-04T17:03:54.504Z,13.90
2022-10-04T17:06:47.933Z,13.90
2022-10-04T17:09:39.619Z,13.90
2022-10-04T17:12:19.320Z,13.80
2022-10-04T17:14:55.718Z,13.70
2022-10-04T17:17:42.377Z,13.70
2022-10-04T17:20:25.086Z,13.60
2022-10-04T17:23:13.879Z,13.60
2022-10-04T17:25:53.502Z,13.50
2022-10-04T17:28:41.826Z,13.40
2022-10-04T17:31:15.716Z,13.40
2022-10-04T17:33:50.448Z,13.30
2022-10-04T17:36:33.204Z,13.30
2022-10-04T17:39:25.707Z,13.30
2022-10-04T17:42:29.260Z,13.30
2022-10-04T17:45:17.330Z,13.20
2022-10-04T17:48:48.360Z,13.20
2022-10-04T17:51:49.730Z,13.10
2022-10-04T17:54:41.621Z,12.90
2022-10-04T17:57:22.642Z,12.80
2022-10-04T18:00:12.959Z,12.70
2022-10-04T18:02:43.548Z,12.60
2022-10-04T18:05:18.355Z,12.50
2022-10-04T18:07:58.370Z,12.50
2022-10-04T18:10:38.036Z,12.50
2022-10-04T18:13:23.605Z,12.50
2022-10-04T18:16:23.657Z,12.50
2022-10-04T18:18:51.273Z,12.40
2022-10-04T18:21:27.743Z,12.30
2022-10-04T18:24:21.870Z,12.10
2022-10-04T18:27:05.544Z,12.10
2022-10-04T18:29:38.140Z,11.90
2022-10-04T18:32:27.359Z,11.80
2022-10-04T18:34:56.720Z,11.80
2022-10-04T18:37:38.810Z,11.70
2022-10-04T18:40:32.158Z,11.70
2022-10-04T18:43:01.822Z,11.80
2022-10-04T18:45:31.421Z,11.90
2022-10-04T18:48:01.750Z,11.90
2022-10-04T18:50:39.252Z,12.00
2022-10-04T18:53:25.553Z,12.00
2022-10-04T18:56:04.605Z,12.50
2022-10-04T18:59:28.509Z,12.00
2022-10-04T19:02:04.008Z,12.10
2022-10-04T19:05:01.468Z,12.10
2022-10-04T19:07:53.845Z,12.00
2022-10-04T19:10:52.461Z,12.10
2022-10-04T19:13:34.053Z,12.10
2022-10-04T19:16:16.195Z,12.10
2022-10-04T19:19:09.611Z,12.00
2022-10-04T19:22:11.772Z,12.10
2022-10-04T19:25:09.559Z,12.00
2022-10-04T19:27:46.696Z,12.00
2022-10-04T19:30:25.476Z,12.00
2022-10-04T19:33:13.889Z,12.00
2022-10-04T19:35:46.187Z,11.90
2022-10-04T19:38:39.212Z,11.70
2022-10-04T19:41:29.345Z,11.80
2022-10-04T19:44:11.628Z,11.70
2022-10-04T19:46:42.204Z,11.70
2022-10-04T19:49:32.045Z,11.70
2022-10-04T19:52:15.840Z,11.60
2022-10-04T19:54:43.357Z,11.60
2022-10-04T19:57:15.202Z,11.50
2022-10-04T19:59:48.466Z,11.50
2022-10-04T20:02:17.289Z,11.50
2022-10-04T20:04:48.812Z,11.60
2022-10-04T20:07:23.795Z,11.60
2022-10-04T20:09:58.142Z,11.60
2022-10-04T20:12:43.210Z,11.70
2022-10-04T20:15:28.828Z,11.60
2022-10-04T20:17:56.618Z,11.60
2022-10-04T20:20:39.693Z,11.60
2022-10-04T20:23:08.427Z,11.70
2022-10-04T20:25:59.608Z,11.70
2022-10-04T20:28:27.166Z,11.70
2022-10-04T20:30:55.554Z,11.80
2022-10-04T20:33:34.908Z,11.80
2022-10-04T20:36:09.267Z,11.70
2022-10-04T20:38:50.680Z,11.80
2022-10-04T20:41:51.937Z,11.80
2022-10-04T20:44:44.231Z,11.80
2022-10-04T20:47:24.041Z,11.70
2022-10-04T20:49:53.312Z,11.70
2022-10-04T20:52:30.761Z,11.60
2022-10-04T20:55:01.772Z,11.60
2022-10-04T20:57:30.592Z,11.70
2022-10-04T20:59:59.430Z,11.70
2022-10-04T21:02:28.808Z,11.60
2022-10-04T21:05:29.446Z,11.50
2022-10-04T21:08:24.689Z,11.50
2022-10-04T21:11:08.853Z,11.50
2022-10-04T21:13:52.062Z,11.60
2022-10-04T21:16:42.331Z,11.60
2022-10-04T21:19:29.760Z,11.60
2022-10-04T21:21:58.771Z,11.70
2022-10-04T21:24:50.124Z,11.70
2022-10-04T21:27:32.282Z,11.70
2022-10-04T21:30:01.395Z,11.70
2022-10-04T21:32:34.763Z,11.70
2022-10-04T21:35:06.358Z,11.60
2022-10-04T21:37:34.797Z,11.60
2022-10-04T21:40:03.779Z,11.70
2022-10-04T21:42:31.420Z,11.70
2022-10-04T21:44:59.038Z,11.70
2022-10-04T21:47:26.476Z,11.70
2022-10-04T21:49:55.119Z,11.70
2022-10-04T21:52:22.950Z,11.70
2022-10-04T21:54:50.481Z,11.70
2022-10-04T21:57:17.938Z,11.60
2022-10-04T21:59:45.444Z,11.50
2022-10-04T22:02:12.904Z,11.50
2022-10-04T22:04:41.619Z,11.50
2022-10-04T22:07:10.662Z,11.50
2022-10-04T22:09:38.123Z,11.50
2022-10-04T22:12:05.678Z,11.60
2022-10-04T22:14:33.094Z,11.50
2022-10-04T22:17:00.520Z,11.60
2022-10-04T22:19:28.270Z,11.60
2022-10-04T22:21:55.911Z,11.60
2022-10-04T22:24:23.385Z,11.60
2022-10-04T22:26:50.900Z,11.70
2022-10-04T22:29:19.054Z,11.60
2022-10-04T22:31:53.117Z,11.60
2022-10-04T22:34:23.002Z,11.70
2022-10-04T22:36:53.973Z,11.70
2022-10-04T22:39:21.702Z,11.70
2022-10-04T22:41:53.753Z,11.70
2022-10-04T22:44:29.310Z,11.80
2022-10-04T22:46:59.901Z,11.80
2022-10-04T22:49:34.140Z,11.70
2022-10-04T22:52:09.854Z,11.70
2022-10-04T22:54:41.422Z,11.70
2022-10-04T22:57:11.616Z,11.70
2022-10-04T22:59:44.674Z,11.70
2022-10-04T23:02:26.925Z,11.70
2022-10-04T23:04:57.060Z,11.70
2022-10-04T23:07:24.747Z,11.70
2022-10-04T23:09:52.234Z,11.70
2022-10-04T23:12:19.717Z,11.80
2022-10-04T23:14:47.182Z,11.80
2022-10-04T23:17:17.588Z,11.80
2022-10-04T23:19:45.118Z,11.80
2022-10-04T23:22:18.673Z,11.80
2022-10-04T23:24:46.102Z,11.80
2022-10-04T23:27:17.333Z,11.80
2022-10-04T23:29:47.395Z,11.80
2022-10-04T23:32:17.538Z,11.80
2022-10-04T23:34:49.377Z,11.80
2022-10-04T23:37:22.738Z,11.80
2022-10-04T23:39:50.476Z,11.80
2022-10-04T23:42:32.143Z,11.70
2022-10-04T23:45:01.602Z,11.70
2022-10-04T23:47:37.003Z,11.70
2022-10-04T23:50:25.534Z,11.70
2022-10-04T23:52:56.740Z,11.70
2022-10-04T23:55:29.142Z,11.70
2022-10-04T23:57:57.062Z,11.70
